createdAt,value
2022-08-14T00:02:17.558Z,58.57
2022-08-14T00:04:45.662Z,59.04
2022-08-14T00:07:14.783Z,59.46
2022-08-14T00:09:56.027Z,59.86
2022-08-14T00:12:33.792Z,59.84
2022-08-14T00:15:11.995Z,61.09
2022-08-14T00:17:48.299Z,61.83
2022-08-14T00:21:00.799Z,61.53
2022-08-14T00:23:29.359Z,62.36
2022-08-14T00:26:05.856Z,62.01
2022-08-14T00:28:36.091Z,62.49
2022-08-14T00:31:07.898Z,60.45
2022-08-14T00:33:39.371Z,61.03
2022-08-14T00:36:36.194Z,60.63
2022-08-14T00:39:09.552Z,61.09
2022-08-14T00:41:39.194Z,60.82
2022-08-14T00:44:08.194Z,60.92
2022-08-14T00:46:37.484Z,60.50
2022-08-14T00:49:08.168Z,62.35
2022-08-14T00:51:41.141Z,62.43
2022-08-14T00:54:16.908Z,62.42
2022-08-14T00:56:51.642Z,63.63
2022-08-14T00:59:24.937Z,63.40
2022-08-14T01:01:55.676Z,63.01
2022-08-14T01:04:38.360Z,62.83
2022-08-14T01:07:21.295Z,62.76
2022-08-14T01:09:51.471Z,63.01
2022-08-14T01:12:27.218Z,63.22
2022-08-14T01:14:59.149Z,63.10
2022-08-14T01:17:50.652Z,63.54
2022-08-14T01:20:40.858Z,63.19
2022-08-14T01:23:15.593Z,63.10
2022-08-14T01:25:45.958Z,62.73
2022-08-14T01:28:47.399Z,63.00
2022-08-14T01:31:05.932Z,63.48
2022-08-14T01:33:39.607Z,63.66
2022-08-14T01:36:23.819Z,64.10
2022-08-14T01:38:58.109Z,63.79
2022-08-14T01:41:30.133Z,63.70
2022-08-14T01:44:02.293Z,63.61
2022-08-14T01:46:33.486Z,63.37
2022-08-14T01:49:07.749Z,63.27
2022-08-14T01:51:37.387Z,62.38
2022-08-14T01:54:09.593Z,62.88
2022-08-14T01:56:39.752Z,64.30
2022-08-14T01:59:10.215Z,64.33
2022-08-14T02:01:55.891Z,63.93
2022-08-14T02:04:55.872Z,63.96
2022-08-14T02:07:34.056Z,64.09
2022-08-14T02:10:13.122Z,63.76
2022-08-14T02:12:44.257Z,64.19
2022-08-14T02:15:13.010Z,64.02
2022-08-14T02:17:43.546Z,64.10
2022-08-14T02:20:12.274Z,63.89
2022-08-14T02:22:47.354Z,63.91
2022-08-14T02:25:17.765Z,63.78
2022-08-14T02:28:25.729Z,63.75
2022-08-14T02:30:34.825Z,64.21
2022-08-14T02:33:07.420Z,64.22
2022-08-14T02:35:40.723Z,63.88
2022-08-14T02:38:11.565Z,63.37
2022-08-14T02:40:41.402Z,64.41
2022-08-14T02:43:13.827Z,63.68
2022-08-14T02:45:45.143Z,64.01
2022-08-14T02:49:04.109Z,65.18
2022-08-14T02:51:30.972Z,65.06
2022-08-14T02:54:01.558Z,64.92
2022-08-14T02:57:13.507Z,65.13
2022-08-14T02:59:19.351Z,64.81
2022-08-14T03:01:50.398Z,65.15
2022-08-14T03:04:23.416Z,65.15
2022-08-14T03:06:57.318Z,65.90
2022-08-14T03:10:26.629Z,65.98
2022-08-14T03:12:57.290Z,66.10
2022-08-14T03:15:25.684Z,65.59
2022-08-14T03:17:57.690Z,66.52
2022-08-14T03:20:28.758Z,66.26
2022-08-14T03:23:03.006Z,65.71
2022-08-14T03:25:33.418Z,66.69
2022-08-14T03:28:05.356Z,65.53
2022-08-14T03:30:39.738Z,65.54
2022-08-14T03:33:11.075Z,64.73
2022-08-14T03:35:59.848Z,65.45
2022-08-14T03:39:12.749Z,65.20
2022-08-14T03:41:21.315Z,65.40
2022-08-14T03:43:57.770Z,66.14
2022-08-14T03:46:52.762Z,64.98
2022-08-14T03:49:24.315Z,66.00
2022-08-14T03:52:00.794Z,66.47
2022-08-14T03:54:30.512Z,66.47
2022-08-14T03:57:02.693Z,66.64
2022-08-14T03:59:33.153Z,66.18
2022-08-14T04:02:04.714Z,66.54
2022-08-14T04:04:53.365Z,65.63
2022-08-14T04:07:22.494Z,65.23
2022-08-14T04:09:50.627Z,66.63
2022-08-14T04:12:26.478Z,66.46
2022-08-14T04:14:56.451Z,66.67
2022-08-14T04:17:24.425Z,66.78
2022-08-14T04:19:54.116Z,67.25
2022-08-14T04:22:22.217Z,67.48
2022-08-14T04:24:50.516Z,67.43
2022-08-14T04:27:19.060Z,66.63
2022-08-14T04:29:47.122Z,66.96
2022-08-14T04:33:02.346Z,67.59
2022-08-14T04:35:07.537Z,68.78
2022-08-14T04:37:56.002Z,67.80
2022-08-14T04:40:42.159Z,67.71
2022-08-14T04:43:38.463Z,68.10
2022-08-14T04:46:10.621Z,67.89
2022-08-14T04:49:00.423Z,67.91
2022-08-14T04:51:30.100Z,68.69
2022-08-14T04:54:05.835Z,68.61
2022-08-14T04:56:34.786Z,69.22
2022-08-14T04:59:09.397Z,68.67
2022-08-14T05:01:39.961Z,69.59
2022-08-14T05:04:16.245Z,69.09
2022-08-14T05:06:44.556Z,69.22
2022-08-14T05:09:14.319Z,68.87
2022-08-14T05:11:44.245Z,69.40
2022-08-14T05:14:33.736Z,69.01
2022-08-14T05:17:02.026Z,68.35
2022-08-14T05:19:32.457Z,69.17
2022-08-14T05:22:17.330Z,69.26
2022-08-14T05:24:50.491Z,69.37
2022-08-14T05:27:22.969Z,70.27
2022-08-14T05:29:55.061Z,69.52
2022-08-14T05:32:27.667Z,69.03
2022-08-14T05:34:59.117Z,68.91
2022-08-14T05:37:28.468Z,69.38
2022-08-14T05:40:00.555Z,69.05
2022-08-14T05:42:32.188Z,69.76
2022-08-14T05:45:04.326Z,69.98
2022-08-14T05:47:39.023Z,70.06
2022-08-14T05:50:17.243Z,70.31
2022-08-14T05:52:47.424Z,69.40
2022-08-14T05:55:15.615Z,69.22
2022-08-14T05:57:49.686Z,69.26
2022-08-14T06:00:25.015Z,70.10
2022-08-14T06:02:58.369Z,70.02
2022-08-14T06:05:30.166Z,69.97
2022-08-14T06:07:59.197Z,70.60
2022-08-14T06:10:28.682Z,70.09
2022-08-14T06:12:58.235Z,69.69
2022-08-14T06:15:29.951Z,69.63
2022-08-14T06:18:00.349Z,68.98
2022-08-14T06:20:30.539Z,69.20
2022-08-14T06:22:59.142Z,68.28
2022-08-14T06:25:27.957Z,67.55
2022-08-14T06:27:55.987Z,67.60
2022-08-14T06:30:41.905Z,67.27
2022-08-14T06:33:16.155Z,66.97
2022-08-14T06:35:48.470Z,66.63
2022-08-14T06:38:18.503Z,66.18
2022-08-14T06:40:47.233Z,66.56
2022-08-14T06:43:16.970Z,65.51
2022-08-14T06:45:50.114Z,64.07
2022-08-14T06:48:23.725Z,63.78
2022-08-14T06:50:54.674Z,64.69
2022-08-14T06:53:27.640Z,64.01
2022-08-14T06:56:00.870Z,64.04
2022-08-14T06:58:31.883Z,63.95
2022-08-14T07:01:25.030Z,62.39
2022-08-14T07:04:25.806Z,62.26
2022-08-14T07:06:58.959Z,63.04
2022-08-14T07:09:43.487Z,63.28
2022-08-14T07:12:54.223Z,61.60
2022-08-14T07:15:01.839Z,62.18
2022-08-14T07:17:31.917Z,61.88
2022-08-14T07:20:02.253Z,62.18
2022-08-14T07:22:33.067Z,61.17
2022-08-14T07:25:19.902Z,60.59
2022-08-14T07:27:48.203Z,59.21
2022-08-14T07:30:34.344Z,59.70
2022-08-14T07:33:03.654Z,60.80
2022-08-14T07:35:42.951Z,59.86
2022-08-14T07:38:23.326Z,60.43
2022-08-14T07:40:53.312Z,59.92
2022-08-14T07:43:21.746Z,58.96
2022-08-14T07:45:51.325Z,60.01
2022-08-14T07:48:24.868Z,58.98
2022-08-14T07:50:59.462Z,58.77
2022-08-14T07:53:34.067Z,58.96
2022-08-14T07:56:21.629Z,58.79
2022-08-14T07:58:53.429Z,59.33
2022-08-14T08:01:26.747Z,57.69
2022-08-14T08:04:00.298Z,58.29
2022-08-14T08:06:29.986Z,58.45
2022-08-14T08:09:02.931Z,57.74
2022-08-14T08:11:34.819Z,57.56
2022-08-14T08:14:10.665Z,58.52
2022-08-14T08:16:46.482Z,57.76
2022-08-14T08:19:18.917Z,56.89
2022-08-14T08:21:47.649Z,56.65
2022-08-14T08:24:20.034Z,55.59
2022-08-14T08:26:50.327Z,56.00
2022-08-14T08:29:28.543Z,57.13
2022-08-14T08:32:01.582Z,55.83
2022-08-14T08:34:45.980Z,56.47
2022-08-14T08:37:15.219Z,54.91
2022-08-14T08:40:01.884Z,54.80
2022-08-14T08:42:52.077Z,54.14
2022-08-14T08:45:22.575Z,54.44
2022-08-14T08:47:52.398Z,54.61
2022-08-14T08:50:31.655Z,56.02
2022-08-14T08:53:02.039Z,54.67
2022-08-14T08:55:34.192Z,54.85
2022-08-14T08:58:05.267Z,53.92
2022-08-14T09:00:36.137Z,53.27
2022-08-14T09:03:10.145Z,51.59
2022-08-14T09:05:40.686Z,52.13
2022-08-14T09:08:30.834Z,50.83
2022-08-14T09:11:19.818Z,50.91
2022-08-14T09:13:51.380Z,49.67
2022-08-14T09:16:22.036Z,49.11
2022-08-14T09:18:53.175Z,50.87
2022-08-14T09:21:24.047Z,48.04
2022-08-14T09:24:28.705Z,46.01
2022-08-14T09:26:49.184Z,46.44
2022-08-14T09:29:19.820Z,46.06
2022-08-14T09:31:55.181Z,45.73
2022-08-14T09:34:36.801Z,46.25
2022-08-14T09:37:20.189Z,44.93
2022-08-14T09:39:57.493Z,45.52
2022-08-14T09:42:36.848Z,44.29
2022-08-14T09:45:18.920Z,44.16
2022-08-14T09:47:51.818Z,44.44
2022-08-14T09:50:26.190Z,43.96
2022-08-14T09:52:58.226Z,43.08
2022-08-14T09:55:28.262Z,43.37
2022-08-14T09:58:15.107Z,44.16
2022-08-14T10:00:49.121Z,42.08
2022-08-14T10:03:30.258Z,42.79
2022-08-14T10:06:09.915Z,41.87
2022-08-14T10:08:50.928Z,41.37
2022-08-14T10:11:23.614Z,40.71
2022-08-14T10:13:55.896Z,42.39
2022-08-14T10:16:27.227Z,41.18
2022-08-14T10:19:09.613Z,40.63
2022-08-14T10:23:11.298Z,40.95
2022-08-14T10:24:36.180Z,41.34
2022-08-14T10:27:05.553Z,42.40
2022-08-14T10:29:37.196Z,39.59
2022-08-14T10:32:17.614Z,41.38
2022-08-14T10:34:52.565Z,41.37
2022-08-14T10:37:23.653Z,41.79
2022-08-14T10:40:05.167Z,41.27
2022-08-14T10:42:39.502Z,41.42
2022-08-14T10:45:21.711Z,39.61
2022-08-14T10:48:07.682Z,41.33
2022-08-14T10:50:41.650Z,40.46
2022-08-14T10:53:10.643Z,39.16
2022-08-14T10:55:45.771Z,39.77
2022-08-14T10:58:15.022Z,40.88
2022-08-14T11:00:57.114Z,39.91
2022-08-14T11:03:26.783Z,38.72
2022-08-14T11:06:15.293Z,38.36
2022-08-14T11:08:45.667Z,37.06
2022-08-14T11:11:14.001Z,39.01
2022-08-14T11:13:46.314Z,40.43
2022-08-14T11:16:16.563Z,38.27
2022-08-14T11:18:46.482Z,40.19
2022-08-14T11:21:23.229Z,37.40
2022-08-14T11:23:53.785Z,38.96
2022-08-14T11:26:28.003Z,37.25
2022-08-14T11:28:59.849Z,37.70
2022-08-14T11:31:35.608Z,36.83
2022-08-14T11:34:29.705Z,36.99
2022-08-14T11:37:04.466Z,36.85
2022-08-14T11:39:45.386Z,36.62
2022-08-14T11:42:57.191Z,38.90
2022-08-14T11:45:17.231Z,37.62
2022-08-14T11:48:13.215Z,38.43
2022-08-14T11:50:38.179Z,35.80
2022-08-14T11:53:07.195Z,37.01
2022-08-14T11:55:39.123Z,36.11
2022-08-14T11:58:10.500Z,35.46
2022-08-14T12:00:47.872Z,36.10
2022-08-14T12:03:22.752Z,37.74
2022-08-14T12:06:28.029Z,35.48
2022-08-14T12:09:00.232Z,35.27
2022-08-14T12:11:43.146Z,35.33
2022-08-14T12:14:13.305Z,34.74
2022-08-14T12:17:02.435Z,37.39
2022-08-14T12:19:33.446Z,36.20
2022-08-14T12:22:03.549Z,36.65
2022-08-14T12:24:36.657Z,36.15
2022-08-14T12:27:07.924Z,34.58
2022-08-14T12:29:37.621Z,35.38
2022-08-14T12:32:09.108Z,36.23
2022-08-14T12:34:45.141Z,36.73
2022-08-14T12:37:13.311Z,36.19
2022-08-14T12:39:41.362Z,36.19
2022-08-14T12:42:11.893Z,35.17
2022-08-14T12:44:59.905Z,36.54
2022-08-14T12:47:35.615Z,36.41
2022-08-14T12:50:05.519Z,35.30
2022-08-14T12:52:45.383Z,35.70
2022-08-14T12:55:32.563Z,35.33
2022-08-14T12:58:35.053Z,35.09
2022-08-14T13:01:16.989Z,34.48
2022-08-14T13:03:51.942Z,35.15
2022-08-14T13:06:24.971Z,37.16
2022-08-14T13:08:53.834Z,34.92
2022-08-14T13:11:31.265Z,35.14
2022-08-14T13:14:00.735Z,35.09
2022-08-14T13:16:33.602Z,34.22
2022-08-14T13:19:10.956Z,36.02
2022-08-14T13:22:05.367Z,36.81
2022-08-14T13:24:29.519Z,32.44
2022-08-14T13:27:04.352Z,33.23
2022-08-14T13:29:37.643Z,34.12
2022-08-14T13:32:09.315Z,33.14
2022-08-14T13:34:38.299Z,33.65
2022-08-14T13:37:07.864Z,32.92
2022-08-14T13:39:36.103Z,32.75
2022-08-14T13:42:08.761Z,34.46
2022-08-14T13:44:42.773Z,33.68
2022-08-14T13:47:12.140Z,35.34
2022-08-14T13:49:57.040Z,34.85
2022-08-14T13:52:52.254Z,35.13
2022-08-14T13:55:19.751Z,33.69
2022-08-14T13:57:49.973Z,35.85
2022-08-14T14:00:35.706Z,35.93
2022-08-14T14:03:20.726Z,32.44
2022-08-14T14:05:54.261Z,33.41
2022-08-14T14:08:45.712Z,32.48
2022-08-14T14:11:16.082Z,32.55
2022-08-14T14:13:46.322Z,32.55
2022-08-14T14:16:26.610Z,34.46
2022-08-14T14:19:09.187Z,33.57
2022-08-14T14:21:40.977Z,32.84
2022-08-14T14:24:14.929Z,34.02
2022-08-14T14:26:48.010Z,32.30
2022-08-14T14:29:23.954Z,31.53
2022-08-14T14:31:55.402Z,31.95
2022-08-14T14:34:30.123Z,30.56
2022-08-14T14:37:04.690Z,30.07
2022-08-14T14:39:38.132Z,31.20
2022-08-14T14:42:32.340Z,29.85
2022-08-14T14:45:05.663Z,32.25
2022-08-14T14:47:34.494Z,31.90
2022-08-14T14:50:03.727Z,28.94
2022-08-14T14:52:32.460Z,33.06
2022-08-14T14:55:08.138Z,30.35
2022-08-14T14:57:36.757Z,30.75
2022-08-14T15:00:08.846Z,32.03
2022-08-14T15:02:43.006Z,31.51
2022-08-14T15:05:13.193Z,28.84
2022-08-14T15:07:42.184Z,28.74
2022-08-14T15:10:27.055Z,32.56
2022-08-14T15:13:03.444Z,31.34
2022-08-14T15:15:33.057Z,28.22
2022-08-14T15:18:01.588Z,33.32
2022-08-14T15:20:31.227Z,28.41
2022-08-14T15:23:00.795Z,31.23
2022-08-14T15:25:31.837Z,26.79
2022-08-14T15:28:00.889Z,27.21
2022-08-14T15:30:32.769Z,29.42
2022-08-14T15:33:01.155Z,28.51
2022-08-14T15:35:34.219Z,31.01
2022-08-14T15:38:07.829Z,29.57
2022-08-14T15:40:40.938Z,28.92
2022-08-14T15:43:10.862Z,28.62
2022-08-14T15:45:42.173Z,30.99
2022-08-14T15:48:14.025Z,29.90
2022-08-14T15:50:51.832Z,26.06
2022-08-14T15:53:22.448Z,30.46
2022-08-14T15:55:53.048Z,30.26
2022-08-14T15:58:21.812Z,27.57
2022-08-14T16:01:07.846Z,30.24
2022-08-14T16:03:40.865Z,26.84
2022-08-14T16:06:17.663Z,27.69
2022-08-14T16:08:50.036Z,27.99
2022-08-14T16:11:24.092Z,28.68
2022-08-14T16:13:52.730Z,27.79
2022-08-14T16:16:47.138Z,28.00
2022-08-14T16:19:19.600Z,26.96
2022-08-14T16:22:02.752Z,27.43
2022-08-14T16:25:02.765Z,28.30
2022-08-14T16:27:38.951Z,27.77
2022-08-14T16:30:25.140Z,28.71
2022-08-14T16:32:57.313Z,28.40
2022-08-14T16:35:42.765Z,29.06
2022-08-14T16:38:22.291Z,28.47
2022-08-14T16:41:21.989Z,28.73
2022-08-14T16:43:59.166Z,28.62
2022-08-14T16:46:34.611Z,29.70
2022-08-14T16:49:05.379Z,28.77
2022-08-14T16:51:38.484Z,29.03
2022-08-14T16:54:20.644Z,30.42
2022-08-14T16:57:13.362Z,30.03
2022-08-14T16:59:52.468Z,29.92
2022-08-14T17:02:35.310Z,30.25
2022-08-14T17:05:21.493Z,30.79
2022-08-14T17:08:32.532Z,31.51
2022-08-14T17:11:10.880Z,30.22
2022-08-14T17:13:59.738Z,30.85
2022-08-14T17:16:35.546Z,30.95
2022-08-14T17:19:05.532Z,31.18
2022-08-14T17:21:38.059Z,31.30
2022-08-14T17:24:57.895Z,30.98
2022-08-14T17:26:59.864Z,31.45
2022-08-14T17:29:31.305Z,31.93
2022-08-14T17:32:03.479Z,31.57
2022-08-14T17:34:46.437Z,31.86
2022-08-14T17:37:25.664Z,32.12
2022-08-14T17:40:13.795Z,32.36
2022-08-14T17:42:53.649Z,32.80
2022-08-14T17:45:26.803Z,33.40
2022-08-14T17:47:59.550Z,35.22
2022-08-14T17:51:00.121Z,35.72
2022-08-14T17:53:30.382Z,36.79
2022-08-14T17:56:01.475Z,37.28
2022-08-14T17:58:41.663Z,37.73
2022-08-14T18:01:14.181Z,38.58
2022-08-14T18:03:53.235Z,38.89
2022-08-14T18:06:38.453Z,39.09
2022-08-14T18:09:26.061Z,40.12
2022-08-14T18:11:57.028Z,40.18
2022-08-14T18:14:32.292Z,40.25
2022-08-14T18:17:02.407Z,40.69
2022-08-14T18:19:35.182Z,40.97
2022-08-14T18:22:05.786Z,41.52
2022-08-14T18:24:54.128Z,41.16
2022-08-14T18:27:25.228Z,41.54
2022-08-14T18:29:58.646Z,41.78
2022-08-14T18:32:54.891Z,42.33
2022-08-14T18:35:45.925Z,42.05
2022-08-14T18:38:26.351Z,41.97
2022-08-14T18:41:36.217Z,42.77
2022-08-14T18:44:10.521Z,42.99
2022-08-14T18:47:20.481Z,43.30
2022-08-14T18:50:03.803Z,43.21
2022-08-14T18:52:54.170Z,43.80
2022-08-14T18:55:54.112Z,44.00
2022-08-14T18:58:31.106Z,43.98
2022-08-14T19:01:01.261Z,44.07
2022-08-14T19:03:53.399Z,44.35
2022-08-14T19:06:38.315Z,44.96
2022-08-14T19:09:07.809Z,45.07
2022-08-14T19:11:50.143Z,44.91
2022-08-14T19:14:47.599Z,45.45
2022-08-14T19:18:10.776Z,45.51
2022-08-14T19:20:47.580Z,45.60
2022-08-14T19:23:18.301Z,45.77
2022-08-14T19:25:55.627Z,46.62
2022-08-14T19:28:31.022Z,45.81
2022-08-14T19:31:41.954Z,45.92
2022-08-14T19:34:30.075Z,46.48
2022-08-14T19:37:10.131Z,47.16
2022-08-14T19:39:49.260Z,46.56
2022-08-14T19:42:28.328Z,46.98
2022-08-14T19:44:58.899Z,47.43
2022-08-14T19:47:38.557Z,47.33
2022-08-14T19:50:39.081Z,47.55
2022-08-14T19:53:16.569Z,47.84
2022-08-14T19:55:59.027Z,47.25
2022-08-14T19:58:54.695Z,47.77
2022-08-14T20:01:27.247Z,47.61
2022-08-14T20:04:46.938Z,47.89
2022-08-14T20:07:04.434Z,48.06
2022-08-14T20:11:05.638Z,47.99
2022-08-14T20:12:36.722Z,48.67
2022-08-14T20:15:27.976Z,48.60
2022-08-14T20:18:38.997Z,48.80
2022-08-14T20:21:05.462Z,49.24
2022-08-14T20:23:38.454Z,48.83
2022-08-14T20:26:30.512Z,49.00
2022-08-14T20:29:05.307Z,49.37
2022-08-14T20:31:37.769Z,49.00
2022-08-14T20:34:07.920Z,49.71
2022-08-14T20:36:47.434Z,49.74
2022-08-14T20:39:16.814Z,49.41
2022-08-14T20:41:49.049Z,49.26
2022-08-14T20:44:40.726Z,49.72
2022-08-14T20:47:15.085Z,50.79
2022-08-14T20:49:43.076Z,50.60
2022-08-14T20:52:19.055Z,50.67
2022-08-14T20:54:51.854Z,50.84
2022-08-14T20:57:20.463Z,51.03
2022-08-14T20:59:53.071Z,51.05
2022-08-14T21:02:46.252Z,50.59
2022-08-14T21:05:22.412Z,50.78
2022-08-14T21:08:10.039Z,50.40
2022-08-14T21:10:50.605Z,51.57
2022-08-14T21:13:27.319Z,51.85
2022-08-14T21:16:34.711Z,51.66
2022-08-14T21:19:00.016Z,51.65
2022-08-14T21:21:41.743Z,51.82
2022-08-14T21:24:39.867Z,51.49
2022-08-14T21:27:12.479Z,51.57
2022-08-14T21:29:54.002Z,52.06
2022-08-14T21:32:35.005Z,53.06
2022-08-14T21:35:08.283Z,53.74
2022-08-14T21:37:45.114Z,53.73
2022-08-14T21:40:40.981Z,55.14
2022-08-14T21:43:03.355Z,55.10
2022-08-14T21:45:35.256Z,54.67
2022-08-14T21:48:10.858Z,54.74
2022-08-14T21:51:01.170Z,54.79
2022-08-14T21:53:34.087Z,55.02
2022-08-14T21:56:03.713Z,54.45
2022-08-14T21:58:53.150Z,55.37
2022-08-14T22:01:20.407Z,55.97
2022-08-14T22:03:55.132Z,55.86
2022-08-14T22:06:28.809Z,56.06
2022-08-14T22:08:58.145Z,56.41
2022-08-14T22:11:27.293Z,56.38
2022-08-14T22:14:02.374Z,56.50
2022-08-14T22:17:01.621Z,56.26
2022-08-14T22:19:47.297Z,57.14
2022-08-14T22:22:26.137Z,57.13
2022-08-14T22:24:59.986Z,57.52
2022-08-14T22:27:32.379Z,56.08
2022-08-14T22:30:02.266Z,56.51
2022-08-14T22:32:56.824Z,57.43
2022-08-14T22:35:23.506Z,57.22
2022-08-14T22:38:35.986Z,57.82
2022-08-14T22:41:07.528Z,58.03
2022-08-14T22:43:35.122Z,57.99
2022-08-14T22:46:06.245Z,57.97
2022-08-14T22:48:44.497Z,58.12
2022-08-14T22:51:13.478Z,58.00
2022-08-14T22:53:43.947Z,58.56
2022-08-14T22:56:20.606Z,58.47
2022-08-14T22:58:49.948Z,58.05
2022-08-14T23:01:25.465Z,58.89
2022-08-14T23:04:35.033Z,59.13
2022-08-14T23:07:04.673Z,60.44
2022-08-14T23:09:38.087Z,60.75
2022-08-14T23:12:27.682Z,59.90
2022-08-14T23:14:56.355Z,59.27
2022-08-14T23:17:24.349Z,61.19
2022-08-14T23:19:56.196Z,61.12
2022-08-14T23:22:26.369Z,61.62
2022-08-14T23:24:57.784Z,61.07
2022-08-14T23:28:02.724Z,61.41
2022-08-14T23:30:31.920Z,60.82
2022-08-14T23:33:03.681Z,60.91
2022-08-14T23:35:33.281Z,61.12
2022-08-14T23:38:02.887Z,60.77
2022-08-14T23:40:32.322Z,60.57
2022-08-14T23:43:07.090Z,60.46
2022-08-14T23:45:39.311Z,61.38
2022-08-14T23:48:09.986Z,61.49
2022-08-14T23:50:41.606Z,61.28
2022-08-14T23:53:28.604Z,61.52
2022-08-14T23:56:09.824Z,62.01
2022-08-14T23:58:40.294Z,61.56
